Glade, Mississippi
Current Conditions -  °F | °C
As of 10:15 AM on Tuesday 21 Oct 2014 (Local Time) from KPIB Reporting Station
Clear Clear  
Wind Chill: 66°   Ceiling: Unl
Heat Index: 66°   Visibility: 10mi
Dew Point: 54°   Wind: 5mph
Humidity: 64%   Direction: 60°ENE
Pressure: 30.11"   Gusts: NA
Location:  31.6875°N, 89.1116°W
Report Text: KPIB 211515Z AUTO 06004KT 10SM CLR 19/12 A3011 RMK AO1
Loading
Personal Weather Stations






























Interactive Weather Map New forecast layout! Learn more

10-Day Weather Forecast

Advertisements
Track Severe Weather on mobile